Schedule Details


Flight Number: CTN652
Departure: Franjo Tudman (LDZA) at 11:40
Arrival: Kastela (LDSP) at 12:30
Route: NIVES Y137 PALEZ L862 OKLAX

Weather Information
LDZA 072300Z 26003KT CAVOK 19/18 Q1018 NOSIG
LDSP 072300Z AUTO VRB01KT CAVOK 27/13 Q1014
Schedule Frequency

Route Map